KSNY/SNY METAR and TAF weather

Enter ICAO airport designator
Station Type Date Time Source
KSNY METAR 2019/02/16 06:53 UTC NOAA

KSNY 160653Z AUTO 15006KT 10SM CLR M11/M12 A2974 RMK AO2 SLP124 T11111122 400061111


Station Type Date Time Source
KSNY Decoded METAR 2019/02/16 06:53 UTC NOAA

SIDNEY MUNICIPAL AIRPORT, NE, United States (KSNY) 41-06N 102-59W 1307M
Feb 16, 2019 - 01:53 AM EST / 2019.02.16 0653 UTC
Wind: from the SSE (150 degrees) at 7 MPH (6 KT):0
Visibility: 10 mile(s):0
Sky conditions: clear
Temperature: 12.0 F (-11.1 C)
Windchill: 1 F (-17 C):1
Dew Point: 10.0 F (-12.2 C)
Relative Humidity: 91%
Pressure (altimeter): 29.74 in. Hg (1007 hPa)
ob: KSNY 160653Z AUTO 15006KT 10SM CLR M11/M12 A2974 RMK AO2 SLP124 T11111122 400061111
cycle: 7

Station Type Date Time Source
KSNY TAF 2019/02/16 06:24 UTC NOAA

TAF KSNY 160520Z 1606/1706 15010KT P6SM SCT250
FM160900 17012KT P6SM SCT007 BKN050
FM161100 16010KT 3SM BR BKN003 OVC010
FM161900 34018G28KT P6SM BKN025 OVC050
FM170100 34012KT P6SM SCT020 OVC050


Example: see airport list